Ashland, West Virginia
Current Conditions -  °F | °C
As of 5:52 PM on Monday 24 Nov 2014 (Local Time) from KBLF Reporting Station
Clear Clear  
Wind Chill: 63°   Ceiling: Unl
Heat Index: 63°   Visibility: 10mi
Dew Point: 36°   Wind: 24mph
Humidity: 37%   Direction: 240°WSW
Pressure: 29.79"   Gusts: 35mph
Location:  37.3807°N, 81.4099°W
Report Text: KBLF 242252Z AUTO 24021G30KT 10SM CLR 17/02 A2979 RMK AO2 PK WND 26037/2219 SLP061 T01720022
Loading
Personal Weather Stations






























Interactive Weather Map New forecast layout! Learn more

10-Day Weather Forecast

Advertisements
Track Severe Weather on mobile